createdAt,value
2023-01-17T00:02:19.278Z,66.00
2023-01-17T00:04:45.804Z,65.85
2023-01-17T00:07:13.517Z,65.70
2023-01-17T00:09:39.850Z,66.38
2023-01-17T00:12:07.173Z,66.39
2023-01-17T00:14:33.465Z,66.86
2023-01-17T00:16:59.762Z,67.01
2023-01-17T00:19:26.028Z,66.83
2023-01-17T00:21:52.321Z,67.05
2023-01-17T00:24:18.624Z,67.23
2023-01-17T00:26:45.096Z,67.40
2023-01-17T00:29:11.386Z,67.02
2023-01-17T00:31:37.765Z,67.51
2023-01-17T00:34:04.181Z,67.46
2023-01-17T00:36:30.450Z,67.64
2023-01-17T00:38:56.743Z,67.78
2023-01-17T00:41:23.149Z,68.62
2023-01-17T00:43:49.430Z,68.76
2023-01-17T00:46:16.439Z,68.75
2023-01-17T00:48:43.552Z,69.05
2023-01-17T00:51:09.842Z,68.49
2023-01-17T00:53:36.246Z,69.34
2023-01-17T00:56:03.481Z,68.92
2023-01-17T00:58:29.771Z,69.48
2023-01-17T01:00:56.298Z,69.40
2023-01-17T01:03:22.957Z,69.52
2023-01-17T01:05:49.258Z,69.51
2023-01-17T01:08:17.947Z,69.41
2023-01-17T01:10:45.788Z,69.65
2023-01-17T01:13:12.038Z,69.31
2023-01-17T01:15:38.315Z,69.50
2023-01-17T01:18:09.222Z,69.73
2023-01-17T01:20:36.622Z,69.48
2023-01-17T01:23:06.252Z,69.55
2023-01-17T01:25:32.635Z,69.32
2023-01-17T01:28:04.316Z,69.81
2023-01-17T01:30:30.872Z,69.80
2023-01-17T01:32:57.220Z,69.65
2023-01-17T01:35:24.010Z,69.67
2023-01-17T01:37:50.565Z,69.47
2023-01-17T01:40:18.357Z,69.83
2023-01-17T01:42:58.342Z,70.03
2023-01-17T01:45:28.062Z,69.57
2023-01-17T01:47:58.028Z,69.40
2023-01-17T01:50:24.510Z,69.47
2023-01-17T01:52:56.001Z,69.14
2023-01-17T01:55:27.622Z,68.64
2023-01-17T01:57:59.971Z,68.21
2023-01-17T02:00:30.337Z,68.67
2023-01-17T02:03:02.185Z,68.03
2023-01-17T02:05:29.264Z,68.17
2023-01-17T02:08:03.035Z,67.90
2023-01-17T02:10:36.898Z,67.89
2023-01-17T02:13:03.598Z,67.62
2023-01-17T02:15:36.483Z,68.32
2023-01-17T02:18:15.755Z,68.20
2023-01-17T02:20:51.014Z,68.24
2023-01-17T02:23:53.538Z,68.25
2023-01-17T02:26:44.787Z,69.26
2023-01-17T02:29:32.827Z,68.57
2023-01-17T02:32:12.833Z,68.66
2023-01-17T02:35:05.537Z,68.55
2023-01-17T02:37:50.523Z,67.86
2023-01-17T02:40:23.135Z,68.01
2023-01-17T02:43:01.290Z,67.61
2023-01-17T02:45:27.768Z,68.12
2023-01-17T02:47:54.079Z,67.69
2023-01-17T02:50:28.024Z,67.85
2023-01-17T02:53:12.048Z,67.19
2023-01-17T02:55:53.965Z,66.42
2023-01-17T02:58:29.929Z,66.77
2023-01-17T03:01:05.450Z,66.79
2023-01-17T03:04:00.663Z,66.42
2023-01-17T03:06:48.459Z,66.30
2023-01-17T03:09:15.941Z,66.34
2023-01-17T03:11:43.268Z,64.91
2023-01-17T03:14:09.678Z,65.25
2023-01-17T03:16:36.010Z,65.82
2023-01-17T03:19:02.580Z,66.50
2023-01-17T03:21:28.873Z,66.75
2023-01-17T03:23:55.202Z,66.92
2023-01-17T03:26:21.573Z,66.79
2023-01-17T03:28:47.876Z,66.75
2023-01-17T03:31:18.206Z,66.87
2023-01-17T03:33:44.496Z,66.50
2023-01-17T03:36:10.833Z,66.89
2023-01-17T03:38:37.351Z,67.03
2023-01-17T03:41:04.290Z,67.20
2023-01-17T03:43:30.596Z,67.16
2023-01-17T03:46:07.868Z,67.51
2023-01-17T03:48:34.275Z,66.71
2023-01-17T03:51:00.542Z,67.20
2023-01-17T03:53:26.860Z,67.40
2023-01-17T03:55:53.150Z,67.55
2023-01-17T03:58:19.447Z,67.58
2023-01-17T04:00:45.983Z,67.38
2023-01-17T04:03:12.311Z,67.44
2023-01-17T04:05:38.618Z,67.43
2023-01-17T04:08:05.115Z,67.51
2023-01-17T04:10:31.399Z,67.63
2023-01-17T04:12:57.821Z,67.91
2023-01-17T04:15:24.089Z,67.84
2023-01-17T04:17:50.592Z,68.17
2023-01-17T04:20:28.832Z,68.66
2023-01-17T04:22:55.107Z,68.74
2023-01-17T04:25:21.423Z,69.21
2023-01-17T04:27:47.792Z,69.41
2023-01-17T04:30:14.285Z,69.16
2023-01-17T04:32:40.605Z,69.42
2023-01-17T04:35:07.287Z,69.52
2023-01-17T04:37:33.737Z,69.44
2023-01-17T04:40:00.093Z,69.29
2023-01-17T04:42:26.571Z,69.95
2023-01-17T04:44:52.966Z,69.62
2023-01-17T04:47:19.269Z,70.48
2023-01-17T04:49:45.716Z,70.68
2023-01-17T04:52:12.061Z,70.66
2023-01-17T04:54:38.412Z,70.28
2023-01-17T04:57:04.811Z,69.76
2023-01-17T04:59:31.173Z,70.19
2023-01-17T05:01:57.543Z,70.46
2023-01-17T05:04:23.914Z,70.10
2023-01-17T05:06:50.229Z,69.70
2023-01-17T05:09:16.525Z,70.09
2023-01-17T05:11:42.916Z,69.88
2023-01-17T05:14:10.120Z,69.94
2023-01-17T05:16:36.506Z,69.78
2023-01-17T05:19:02.798Z,69.58
2023-01-17T05:21:29.103Z,69.47
2023-01-17T05:23:55.436Z,69.56
2023-01-17T05:26:21.714Z,69.14
2023-01-17T05:28:48.019Z,69.90
2023-01-17T05:31:14.351Z,69.95
2023-01-17T05:33:40.746Z,69.53
2023-01-17T05:36:07.683Z,69.46
2023-01-17T05:38:34.024Z,69.46
2023-01-17T05:41:01.712Z,69.29
2023-01-17T05:43:28.959Z,69.05
2023-01-17T05:45:55.480Z,69.61
2023-01-17T05:48:21.812Z,69.35
2023-01-17T05:50:48.207Z,69.28
2023-01-17T05:53:16.558Z,69.26
2023-01-17T05:55:42.947Z,69.37
2023-01-17T05:58:14.833Z,69.37
2023-01-17T06:00:41.456Z,69.29
2023-01-17T06:03:07.757Z,69.08
2023-01-17T06:05:34.173Z,69.06
2023-01-17T06:08:00.454Z,69.11
2023-01-17T06:10:27.452Z,69.23
2023-01-17T06:13:02.549Z,69.08
2023-01-17T06:15:28.965Z,68.92
2023-01-17T06:17:55.359Z,68.84
2023-01-17T06:20:21.621Z,68.38
2023-01-17T06:22:48.057Z,68.46
2023-01-17T06:25:14.423Z,68.78
2023-01-17T06:27:40.720Z,68.67
2023-01-17T06:30:07.672Z,68.14
2023-01-17T06:32:33.944Z,68.37
2023-01-17T06:35:00.199Z,68.20
2023-01-17T06:37:26.567Z,68.05
2023-01-17T06:39:53.012Z,68.23
2023-01-17T06:42:19.301Z,68.30
2023-01-17T06:44:45.563Z,68.08
2023-01-17T06:47:11.842Z,68.00
2023-01-17T06:49:38.197Z,68.18
2023-01-17T06:52:04.940Z,68.37
2023-01-17T06:54:31.196Z,68.76
2023-01-17T06:56:57.484Z,68.64
2023-01-17T06:59:23.766Z,68.99
2023-01-17T07:01:50.088Z,68.89
2023-01-17T07:04:16.469Z,69.51
2023-01-17T07:06:42.863Z,70.72
2023-01-17T07:09:09.172Z,71.04
2023-01-17T07:11:35.438Z,71.18
2023-01-17T07:14:01.716Z,71.22
2023-01-17T07:16:28.099Z,70.81
2023-01-17T07:18:55.382Z,70.92
2023-01-17T07:21:21.657Z,70.69
2023-01-17T07:23:47.973Z,71.58
2023-01-17T07:26:14.269Z,71.89
2023-01-17T07:28:40.585Z,71.26
2023-01-17T07:31:07.747Z,70.76
2023-01-17T07:33:34.316Z,71.19
2023-01-17T07:36:05.840Z,73.10
2023-01-17T07:38:32.107Z,72.95
2023-01-17T07:40:59.035Z,72.15
2023-01-17T07:43:25.520Z,71.52
2023-01-17T07:45:51.888Z,71.37
2023-01-17T07:48:19.946Z,70.92
2023-01-17T07:50:52.350Z,71.04
2023-01-17T07:53:18.617Z,71.02
2023-01-17T07:55:44.914Z,70.75
2023-01-17T07:58:11.277Z,70.99
2023-01-17T08:00:37.697Z,70.63
2023-01-17T08:03:04.125Z,70.55
2023-01-17T08:05:30.405Z,71.03
2023-01-17T08:07:56.678Z,71.22
2023-01-17T08:10:23.161Z,71.42
2023-01-17T08:12:50.239Z,71.22
2023-01-17T08:15:17.931Z,71.75
2023-01-17T08:17:48.507Z,72.28
2023-01-17T08:20:16.060Z,72.09
2023-01-17T08:22:42.484Z,71.96
2023-01-17T08:25:09.351Z,71.66
2023-01-17T08:27:36.405Z,71.57
2023-01-17T08:30:02.923Z,71.46
2023-01-17T08:32:29.231Z,71.21
2023-01-17T08:34:55.509Z,71.01
2023-01-17T08:37:21.791Z,70.98
2023-01-17T08:39:48.074Z,70.71
2023-01-17T08:42:14.412Z,70.58
2023-01-17T08:44:40.712Z,70.87
2023-01-17T08:47:07.090Z,71.04
2023-01-17T08:49:33.572Z,70.71
2023-01-17T08:51:59.915Z,69.96
2023-01-17T08:54:26.256Z,69.85
2023-01-17T08:56:52.557Z,69.84
2023-01-17T08:59:18.865Z,69.95
2023-01-17T09:01:45.271Z,69.96
2023-01-17T09:04:12.720Z,69.18
2023-01-17T09:06:41.801Z,69.63
2023-01-17T09:09:08.981Z,69.34
2023-01-17T09:11:35.277Z,69.20
2023-01-17T09:14:01.555Z,68.79
2023-01-17T09:16:28.405Z,67.23
2023-01-17T09:18:56.288Z,67.53
2023-01-17T09:21:23.583Z,67.08
2023-01-17T09:23:50.109Z,64.73
2023-01-17T09:26:25.936Z,63.27
2023-01-17T09:28:52.832Z,65.13
2023-01-17T09:31:20.878Z,63.46
2023-01-17T09:33:48.366Z,63.92
2023-01-17T09:36:14.703Z,63.98
2023-01-17T09:38:41.071Z,64.07
2023-01-17T09:41:57.508Z,64.12
2023-01-17T09:44:23.794Z,62.20
2023-01-17T09:46:53.754Z,61.56
2023-01-17T09:49:39.536Z,62.28
2023-01-17T09:52:08.379Z,62.14
2023-01-17T09:54:47.515Z,62.65
2023-01-17T09:57:37.366Z,60.80
2023-01-17T10:00:28.337Z,60.05
2023-01-17T10:03:22.827Z,59.79
2023-01-17T10:06:01.923Z,61.98
2023-01-17T10:08:43.227Z,60.71
2023-01-17T10:11:29.113Z,61.58
2023-01-17T10:14:07.316Z,61.32
2023-01-17T10:16:48.547Z,61.29
2023-01-17T10:19:46.627Z,61.33
2023-01-17T10:22:31.160Z,61.20
2023-01-17T10:25:12.106Z,59.26
2023-01-17T10:27:44.134Z,60.74
2023-01-17T10:30:21.611Z,58.85
2023-01-17T10:32:49.329Z,60.21
2023-01-17T10:35:25.487Z,59.38
2023-01-17T10:37:54.508Z,59.58
2023-01-17T10:40:33.305Z,60.51
2023-01-17T10:43:11.629Z,57.12
2023-01-17T10:45:43.674Z,55.15
2023-01-17T10:48:28.807Z,57.19
2023-01-17T10:51:01.347Z,55.99
2023-01-17T10:53:56.269Z,54.20
2023-01-17T10:56:27.878Z,53.74
2023-01-17T10:59:11.782Z,55.46
2023-01-17T11:01:39.017Z,57.26
2023-01-17T11:04:33.682Z,53.66
2023-01-17T11:07:10.578Z,51.86
2023-01-17T11:09:40.055Z,52.47
2023-01-17T11:12:17.343Z,53.26
2023-01-17T11:14:59.634Z,53.07
2023-01-17T11:17:26.905Z,54.90
2023-01-17T11:19:54.153Z,54.59
2023-01-17T11:22:20.814Z,56.67
2023-01-17T11:24:50.917Z,55.82
2023-01-17T11:27:56.738Z,54.04
2023-01-17T11:30:23.141Z,55.70
2023-01-17T11:33:05.841Z,55.24
2023-01-17T11:35:37.410Z,55.28
2023-01-17T11:38:21.869Z,53.82
2023-01-17T11:40:49.655Z,55.72
2023-01-17T11:43:18.779Z,54.11
2023-01-17T11:45:46.647Z,53.94
2023-01-17T11:48:16.459Z,54.53
2023-01-17T11:50:59.618Z,51.14
2023-01-17T11:53:36.929Z,52.10
2023-01-17T11:56:08.543Z,51.95
2023-01-17T11:58:38.439Z,50.68
2023-01-17T12:01:39.309Z,52.42
2023-01-17T12:04:24.055Z,53.95
2023-01-17T12:07:37.922Z,54.23
2023-01-17T12:10:08.697Z,53.63
2023-01-17T12:12:43.690Z,54.19
2023-01-17T12:15:32.710Z,51.56
2023-01-17T12:18:36.312Z,50.90
2023-01-17T12:21:15.148Z,51.45
2023-01-17T12:23:56.505Z,51.68
2023-01-17T12:26:33.072Z,49.00
2023-01-17T12:29:21.243Z,51.53
2023-01-17T12:32:19.795Z,48.99
2023-01-17T12:35:00.198Z,48.69
2023-01-17T12:37:30.013Z,47.58
2023-01-17T12:40:08.584Z,50.25
2023-01-17T12:42:39.966Z,50.06
2023-01-17T12:45:22.318Z,47.58
2023-01-17T12:47:54.685Z,46.73
2023-01-17T12:50:28.447Z,47.73
2023-01-17T12:53:04.580Z,47.48
2023-01-17T12:55:36.559Z,46.05
2023-01-17T12:58:06.001Z,47.46
2023-01-17T13:00:37.429Z,44.68
2023-01-17T13:03:35.379Z,46.21
2023-01-17T13:06:03.214Z,47.23
2023-01-17T13:08:47.798Z,46.32
2023-01-17T13:11:26.813Z,45.46
2023-01-17T13:13:53.210Z,46.36
2023-01-17T13:16:53.540Z,46.01
2023-01-17T13:19:39.945Z,46.23
2023-01-17T13:22:09.189Z,43.98
2023-01-17T13:24:49.092Z,45.57
2023-01-17T13:27:25.766Z,46.49
2023-01-17T13:30:16.113Z,44.98
2023-01-17T13:33:04.904Z,45.68
2023-01-17T13:35:39.990Z,45.40
2023-01-17T13:38:30.583Z,46.58
2023-01-17T13:41:22.177Z,45.72
2023-01-17T13:43:48.742Z,45.98
2023-01-17T13:46:22.209Z,45.33
2023-01-17T13:49:34.730Z,47.25
2023-01-17T13:52:33.075Z,45.59
2023-01-17T13:55:02.595Z,47.53
2023-01-17T13:57:33.091Z,45.75
2023-01-17T14:00:20.149Z,48.07
2023-01-17T14:02:48.660Z,45.79
2023-01-17T14:05:41.652Z,47.13
2023-01-17T14:08:19.283Z,45.04
2023-01-17T14:10:53.977Z,47.60
2023-01-17T14:13:36.823Z,45.53
2023-01-17T14:16:23.229Z,46.95
2023-01-17T14:18:50.116Z,47.02
2023-01-17T14:21:22.740Z,46.54
2023-01-17T14:24:06.219Z,47.59
2023-01-17T14:26:37.150Z,47.22
2023-01-17T14:29:40.953Z,47.56
2023-01-17T14:32:11.946Z,47.44
2023-01-17T14:34:38.468Z,48.50
2023-01-17T14:37:18.227Z,47.97
2023-01-17T14:39:46.620Z,47.32
2023-01-17T14:42:20.689Z,47.99
2023-01-17T14:44:50.634Z,48.36
2023-01-17T14:47:17.103Z,48.40
2023-01-17T14:49:44.133Z,48.51
2023-01-17T14:52:16.331Z,50.12
2023-01-17T14:54:50.692Z,49.86
2023-01-17T14:57:29.676Z,49.24
2023-01-17T15:00:17.243Z,50.27
2023-01-17T15:02:44.054Z,50.39
2023-01-17T15:05:19.995Z,50.25
2023-01-17T15:07:48.738Z,50.27
2023-01-17T15:10:18.517Z,50.36
2023-01-17T15:12:44.835Z,49.58
2023-01-17T15:15:26.458Z,49.03
2023-01-17T15:18:07.909Z,48.37
2023-01-17T15:20:34.717Z,50.73
2023-01-17T15:23:01.849Z,50.63
2023-01-17T15:25:28.459Z,50.77
2023-01-17T15:27:54.823Z,50.62
2023-01-17T15:30:21.306Z,50.67
2023-01-17T15:32:48.001Z,50.48
2023-01-17T15:35:18.097Z,50.79
2023-01-17T15:37:44.669Z,50.82
2023-01-17T15:40:22.729Z,50.66
2023-01-17T15:42:52.782Z,51.96
2023-01-17T15:45:30.584Z,51.34
2023-01-17T15:47:57.231Z,51.03
2023-01-17T15:50:31.307Z,50.79
2023-01-17T15:52:59.298Z,51.40
2023-01-17T15:55:31.704Z,51.71
2023-01-17T15:57:58.394Z,52.27
2023-01-17T16:00:28.058Z,51.88
2023-01-17T16:02:55.291Z,52.46
2023-01-17T16:05:21.901Z,52.04
2023-01-17T16:07:52.558Z,51.97
2023-01-17T16:10:23.069Z,52.41
2023-01-17T16:12:54.008Z,52.38
2023-01-17T16:15:20.577Z,52.32
2023-01-17T16:17:50.073Z,52.13
2023-01-17T16:20:29.525Z,53.13
2023-01-17T16:22:56.240Z,53.13
2023-01-17T16:25:24.361Z,52.74
2023-01-17T16:27:51.937Z,53.06
2023-01-17T16:30:20.428Z,53.04
2023-01-17T16:32:48.591Z,53.15
2023-01-17T16:35:17.582Z,53.56
2023-01-17T16:37:43.845Z,53.73
2023-01-17T16:40:10.982Z,53.70
2023-01-17T16:42:37.266Z,54.28
2023-01-17T16:45:03.808Z,53.93
2023-01-17T16:47:30.120Z,53.82
2023-01-17T16:49:56.401Z,54.30
2023-01-17T16:52:22.718Z,54.78
2023-01-17T16:54:49.007Z,54.70
2023-01-17T16:57:15.262Z,54.24
2023-01-17T16:59:50.341Z,54.05
2023-01-17T17:02:17.057Z,54.66
2023-01-17T17:04:43.359Z,54.60
2023-01-17T17:07:09.666Z,54.73
2023-01-17T17:09:35.972Z,54.69
2023-01-17T17:12:02.301Z,55.04
2023-01-17T17:14:28.786Z,54.96
2023-01-17T17:16:56.316Z,55.58
2023-01-17T17:19:22.875Z,54.83
2023-01-17T17:21:49.182Z,55.44
2023-01-17T17:24:16.836Z,55.18
2023-01-17T17:26:44.448Z,55.41
2023-01-17T17:29:13.090Z,55.72
2023-01-17T17:31:40.909Z,55.86
2023-01-17T17:34:07.452Z,55.98
2023-01-17T17:36:35.057Z,55.92
2023-01-17T17:39:02.554Z,55.71
2023-01-17T17:41:31.770Z,56.02
2023-01-17T17:44:00.430Z,55.71
2023-01-17T17:46:27.687Z,56.23
2023-01-17T17:48:54.528Z,56.24
2023-01-17T17:51:35.959Z,56.68
2023-01-17T17:54:05.332Z,56.84
2023-01-17T17:56:32.616Z,56.88
2023-01-17T17:59:00.861Z,57.61
2023-01-17T18:01:27.702Z,57.36
2023-01-17T18:03:56.739Z,57.29
2023-01-17T18:06:23.795Z,57.88
2023-01-17T18:08:50.355Z,57.97
2023-01-17T18:11:24.453Z,57.86
2023-01-17T18:13:52.131Z,58.20
2023-01-17T18:16:25.261Z,58.82
2023-01-17T18:18:54.546Z,58.48
2023-01-17T18:21:27.311Z,59.09
2023-01-17T18:24:05.677Z,59.37
2023-01-17T18:26:38.032Z,60.48
2023-01-17T18:29:06.569Z,60.05
2023-01-17T18:31:33.341Z,60.48
2023-01-17T18:34:03.875Z,60.88
2023-01-17T18:36:30.252Z,61.42
2023-01-17T18:38:56.880Z,60.53
2023-01-17T18:41:25.637Z,60.97
2023-01-17T18:43:52.272Z,61.11
2023-01-17T18:46:20.229Z,61.11
2023-01-17T18:48:46.737Z,61.37
2023-01-17T18:51:18.016Z,61.34
2023-01-17T18:53:45.959Z,61.52
2023-01-17T18:56:18.508Z,61.62
2023-01-17T18:58:46.426Z,61.79
2023-01-17T19:01:21.884Z,61.92
2023-01-17T19:03:49.866Z,61.13
2023-01-17T19:06:25.134Z,61.66
2023-01-17T19:08:51.904Z,61.65
2023-01-17T19:11:20.074Z,61.99
2023-01-17T19:13:46.370Z,61.92
2023-01-17T19:16:17.403Z,61.85
2023-01-17T19:18:43.789Z,62.08
2023-01-17T19:21:13.087Z,61.80
2023-01-17T19:23:39.881Z,61.30
2023-01-17T19:26:07.877Z,61.81
2023-01-17T19:28:37.746Z,62.64
2023-01-17T19:31:09.715Z,62.00
2023-01-17T19:33:38.178Z,62.16
2023-01-17T19:36:06.284Z,62.08
2023-01-17T19:38:35.338Z,62.13
2023-01-17T19:41:15.051Z,62.25
2023-01-17T19:43:42.078Z,62.32
2023-01-17T19:46:09.355Z,62.54
2023-01-17T19:48:36.789Z,62.58
2023-01-17T19:51:09.493Z,62.79
2023-01-17T19:53:36.814Z,62.83
2023-01-17T19:56:12.673Z,63.45
2023-01-17T19:58:39.077Z,63.17
2023-01-17T20:01:10.742Z,63.43
2023-01-17T20:03:38.236Z,63.43
2023-01-17T20:06:06.519Z,63.62
2023-01-17T20:08:34.317Z,64.45
2023-01-17T20:11:07.895Z,64.78
2023-01-17T20:13:34.718Z,64.34
2023-01-17T20:16:03.105Z,64.34
2023-01-17T20:18:29.447Z,64.36
2023-01-17T20:21:01.223Z,64.35
2023-01-17T20:23:27.519Z,64.94
2023-01-17T20:25:55.099Z,64.57
2023-01-17T20:28:21.411Z,64.69
2023-01-17T20:30:47.690Z,65.00
2023-01-17T20:33:13.945Z,65.67
2023-01-17T20:35:40.222Z,65.06
2023-01-17T20:38:06.498Z,65.94
2023-01-17T20:40:32.788Z,64.97
2023-01-17T20:42:59.086Z,65.11
2023-01-17T20:45:25.373Z,65.06
2023-01-17T20:47:51.677Z,65.49
2023-01-17T20:50:18.059Z,65.84
2023-01-17T20:52:44.337Z,65.32
2023-01-17T20:55:10.646Z,65.83
2023-01-17T20:57:36.962Z,65.42
2023-01-17T21:00:03.949Z,65.76
2023-01-17T21:02:30.266Z,66.19
2023-01-17T21:04:56.590Z,66.16
2023-01-17T21:07:22.964Z,65.72
2023-01-17T21:09:49.237Z,66.07
2023-01-17T21:12:15.493Z,66.40
2023-01-17T21:14:41.789Z,66.84
2023-01-17T21:17:08.323Z,65.99
2023-01-17T21:19:35.213Z,66.15
2023-01-17T21:22:01.514Z,65.87
2023-01-17T21:24:27.883Z,65.44
2023-01-17T21:26:54.383Z,66.01
2023-01-17T21:29:20.818Z,65.42
2023-01-17T21:31:47.089Z,65.24
2023-01-17T21:34:13.363Z,64.89
2023-01-17T21:36:41.870Z,64.31
2023-01-17T21:39:12.469Z,64.64
2023-01-17T21:41:40.505Z,64.84
2023-01-17T21:44:19.416Z,64.18
2023-01-17T21:46:45.974Z,64.10
2023-01-17T21:49:12.358Z,63.98
2023-01-17T21:51:40.449Z,63.88
2023-01-17T21:54:06.706Z,63.70
2023-01-17T21:56:32.994Z,63.65
2023-01-17T21:58:59.731Z,62.65
2023-01-17T22:01:32.063Z,63.85
2023-01-17T22:04:01.117Z,64.22
2023-01-17T22:06:29.832Z,63.86
2023-01-17T22:08:56.277Z,64.41
2023-01-17T22:11:24.765Z,63.99
2023-01-17T22:13:51.634Z,63.92
2023-01-17T22:16:21.023Z,64.44
2023-01-17T22:18:47.724Z,64.35
2023-01-17T22:21:17.218Z,64.75
2023-01-17T22:23:51.977Z,64.29
2023-01-17T22:26:19.712Z,64.19
2023-01-17T22:28:46.009Z,64.26
2023-01-17T22:31:18.007Z,64.40
2023-01-17T22:33:45.723Z,64.95
2023-01-17T22:36:13.788Z,64.74
2023-01-17T22:38:41.357Z,64.55
2023-01-17T22:41:13.680Z,64.52
2023-01-17T22:43:48.557Z,65.36
2023-01-17T22:46:18.064Z,65.20
2023-01-17T22:48:45.223Z,65.90
2023-01-17T22:51:14.645Z,65.28
2023-01-17T22:53:42.660Z,65.52
2023-01-17T22:56:11.819Z,65.29
2023-01-17T22:58:39.228Z,65.74
2023-01-17T23:01:07.784Z,65.59
2023-01-17T23:03:34.946Z,66.02
2023-01-17T23:06:11.532Z,66.86
2023-01-17T23:08:39.579Z,66.97
2023-01-17T23:11:22.385Z,67.48
2023-01-17T23:13:48.754Z,68.35
2023-01-17T23:16:15.049Z,68.41
2023-01-17T23:18:41.329Z,68.98
2023-01-17T23:21:08.096Z,70.19
2023-01-17T23:23:34.346Z,69.78
2023-01-17T23:26:00.870Z,70.33
2023-01-17T23:28:27.165Z,72.82
2023-01-17T23:30:53.545Z,73.18
2023-01-17T23:33:19.826Z,71.73
2023-01-17T23:35:46.373Z,72.85
2023-01-17T23:38:15.015Z,77.06
2023-01-17T23:40:41.686Z,74.42
2023-01-17T23:43:11.360Z,76.04
2023-01-17T23:45:38.502Z,75.51
2023-01-17T23:48:06.272Z,76.59
2023-01-17T23:50:32.816Z,78.09
2023-01-17T23:52:59.538Z,77.78
2023-01-17T23:55:26.014Z,79.06
2023-01-17T23:57:52.292Z,77.82
